createdAt,value
2022-12-31T00:01:08.065Z,73.49
2022-12-31T00:03:36.247Z,73.57
2022-12-31T00:06:14.851Z,73.74
2022-12-31T00:08:42.684Z,73.72
2022-12-31T00:11:10.636Z,73.75
2022-12-31T00:13:38.868Z,73.81
2022-12-31T00:16:12.439Z,73.68
2022-12-31T00:18:43.223Z,73.52
2022-12-31T00:21:10.887Z,73.50
2022-12-31T00:23:38.526Z,73.63
2022-12-31T00:26:08.682Z,73.49
2022-12-31T00:28:37.518Z,73.43
2022-12-31T00:31:10.127Z,73.34
2022-12-31T00:33:38.477Z,73.26
2022-12-31T00:36:10.412Z,73.20
2022-12-31T00:38:39.111Z,73.05
2022-12-31T00:41:08.869Z,73.00
2022-12-31T00:43:36.533Z,72.97
2022-12-31T00:46:06.071Z,72.93
2022-12-31T00:48:34.473Z,72.73
2022-12-31T00:51:03.286Z,72.66
2022-12-31T00:53:31.072Z,72.52
2022-12-31T00:56:11.903Z,72.46
2022-12-31T00:58:39.933Z,72.44
2022-12-31T01:01:56.175Z,72.39
2022-12-31T01:04:24.271Z,72.16
2022-12-31T01:06:52.420Z,72.26
2022-12-31T01:09:20.083Z,72.17
2022-12-31T01:11:50.065Z,72.08
2022-12-31T01:14:18.682Z,72.13
2022-12-31T01:16:51.327Z,71.98
2022-12-31T01:19:21.598Z,72.01
2022-12-31T01:21:51.501Z,72.07
2022-12-31T01:24:20.796Z,71.98
2022-12-31T01:26:51.880Z,71.94
2022-12-31T01:29:22.246Z,71.97
2022-12-31T01:31:52.033Z,71.93
2022-12-31T01:34:21.172Z,71.91
2022-12-31T01:36:49.881Z,71.84
2022-12-31T01:39:17.822Z,71.80
2022-12-31T01:41:46.711Z,71.96
2022-12-31T01:44:23.659Z,72.08
2022-12-31T01:46:56.416Z,72.06
2022-12-31T01:49:28.504Z,72.16
2022-12-31T01:52:28.624Z,72.08
2022-12-31T01:55:00.692Z,72.09
2022-12-31T01:57:28.533Z,72.34
2022-12-31T01:59:56.528Z,72.38
2022-12-31T02:02:24.453Z,72.35
2022-12-31T02:07:50.423Z,72.01
2022-12-31T02:10:19.776Z,72.17
2022-12-31T02:12:47.861Z,72.04
2022-12-31T02:15:15.999Z,72.42
2022-12-31T02:18:06.930Z,72.70
2022-12-31T02:20:54.093Z,72.96
2022-12-31T02:23:41.803Z,73.11
2022-12-31T02:26:27.201Z,73.01
2022-12-31T02:28:57.797Z,72.99
2022-12-31T02:31:30.975Z,73.10
2022-12-31T02:33:58.622Z,72.97
2022-12-31T02:36:30.258Z,72.76
2022-12-31T02:38:59.751Z,72.81
2022-12-31T02:41:47.065Z,72.69
2022-12-31T02:44:55.812Z,72.58
2022-12-31T02:47:22.911Z,72.45
2022-12-31T02:50:08.792Z,72.65
2022-12-31T02:52:35.848Z,72.45
2022-12-31T02:55:24.219Z,72.72
2022-12-31T02:57:58.038Z,72.55
2022-12-31T03:00:46.191Z,72.50
2022-12-31T03:03:15.791Z,72.79
2022-12-31T03:05:44.589Z,72.65
2022-12-31T03:08:20.694Z,72.41
2022-12-31T03:10:47.764Z,72.50
2022-12-31T03:13:17.185Z,72.51
2022-12-31T03:15:44.914Z,72.62
2022-12-31T03:18:13.905Z,72.41
2022-12-31T03:21:08.619Z,72.43
2022-12-31T03:23:37.345Z,72.60
2022-12-31T03:26:11.925Z,72.54
2022-12-31T03:28:40.944Z,72.48
2022-12-31T03:31:10.761Z,72.58
2022-12-31T03:33:41.792Z,72.25
2022-12-31T03:36:11.704Z,72.31
2022-12-31T03:38:38.872Z,72.34
2022-12-31T03:41:17.260Z,72.54
2022-12-31T03:43:44.221Z,72.37
2022-12-31T03:46:10.704Z,72.38
2022-12-31T03:48:39.893Z,72.44
2022-12-31T03:51:11.943Z,72.35
2022-12-31T03:53:39.987Z,72.49
2022-12-31T03:56:08.971Z,72.43
2022-12-31T03:58:38.776Z,72.72
2022-12-31T04:01:07.973Z,72.54
2022-12-31T04:03:38.234Z,72.71
2022-12-31T04:06:07.742Z,72.77
2022-12-31T04:08:35.023Z,73.10
2022-12-31T04:11:04.153Z,72.93
2022-12-31T04:13:32.694Z,73.16
2022-12-31T04:16:05.133Z,73.02
2022-12-31T04:18:33.180Z,73.32
2022-12-31T04:21:05.254Z,73.38
2022-12-31T04:23:33.738Z,73.31
2022-12-31T04:26:02.969Z,73.53
2022-12-31T04:28:29.599Z,73.52
2022-12-31T04:30:59.920Z,73.43
2022-12-31T04:33:30.458Z,73.37
2022-12-31T04:36:03.810Z,73.55
2022-12-31T04:38:34.936Z,73.70
2022-12-31T04:41:17.330Z,73.91
2022-12-31T04:43:51.936Z,73.97
2022-12-31T04:46:20.837Z,74.05
2022-12-31T04:48:50.053Z,74.27
2022-12-31T04:51:18.119Z,74.49
2022-12-31T04:53:46.016Z,74.28
2022-12-31T04:56:16.202Z,74.33
2022-12-31T04:58:45.293Z,74.46
2022-12-31T05:01:14.193Z,74.32
2022-12-31T05:03:45.167Z,74.55
2022-12-31T05:06:17.567Z,74.70
2022-12-31T05:08:45.799Z,74.57
2022-12-31T05:11:13.803Z,74.77
2022-12-31T05:13:41.101Z,74.84
2022-12-31T05:16:09.976Z,74.95
2022-12-31T05:18:37.686Z,74.86
2022-12-31T05:21:07.881Z,75.00
2022-12-31T05:23:37.985Z,75.07
2022-12-31T05:26:05.339Z,75.04
2022-12-31T05:28:32.767Z,75.18
2022-12-31T05:31:00.916Z,75.40
2022-12-31T05:33:27.855Z,75.43
2022-12-31T05:35:58.136Z,75.02
2022-12-31T05:38:26.824Z,74.89
2022-12-31T05:41:07.974Z,74.95
2022-12-31T05:43:39.592Z,75.02
2022-12-31T05:46:08.748Z,75.04
2022-12-31T05:48:35.990Z,75.24
2022-12-31T05:51:04.738Z,75.31
2022-12-31T05:53:34.607Z,75.49
2022-12-31T05:56:02.582Z,75.76
2022-12-31T05:58:35.045Z,75.74
2022-12-31T06:01:03.287Z,76.08
2022-12-31T06:03:31.945Z,76.23
2022-12-31T06:06:02.940Z,76.39
2022-12-31T06:08:32.691Z,76.46
2022-12-31T06:11:02.709Z,76.66
2022-12-31T06:13:31.942Z,76.95
2022-12-31T06:16:07.512Z,77.39
2022-12-31T06:18:37.166Z,78.40
2022-12-31T06:21:06.897Z,78.87
2022-12-31T06:23:33.699Z,78.64
2022-12-31T06:26:01.727Z,78.91
2022-12-31T06:28:31.236Z,78.47
2022-12-31T06:31:02.038Z,78.57
2022-12-31T06:33:31.414Z,78.69
2022-12-31T06:36:01.366Z,79.01
2022-12-31T06:38:30.873Z,78.92
2022-12-31T06:40:58.701Z,79.02
2022-12-31T06:43:27.761Z,78.66
2022-12-31T06:45:56.933Z,78.05
2022-12-31T06:48:24.249Z,78.01
2022-12-31T06:50:57.950Z,77.87
2022-12-31T06:53:24.976Z,77.92
2022-12-31T06:55:52.034Z,78.05
2022-12-31T06:58:18.949Z,78.13
2022-12-31T07:00:52.939Z,78.33
2022-12-31T07:03:46.861Z,78.37
2022-12-31T07:06:16.884Z,78.57
2022-12-31T07:08:50.876Z,78.42
2022-12-31T07:11:26.473Z,78.69
2022-12-31T07:14:02.963Z,79.02
2022-12-31T07:16:48.776Z,78.87
2022-12-31T07:19:37.278Z,78.95
2022-12-31T07:22:06.003Z,79.15
2022-12-31T07:24:35.938Z,79.25
2022-12-31T07:27:22.887Z,79.13
2022-12-31T07:29:59.549Z,79.09
2022-12-31T07:32:52.806Z,78.91
2022-12-31T07:35:43.106Z,79.02
2022-12-31T07:38:14.020Z,78.72
2022-12-31T07:41:05.581Z,78.75
2022-12-31T07:43:41.906Z,78.70
2022-12-31T07:46:21.962Z,78.50
2022-12-31T07:48:52.322Z,78.50
2022-12-31T07:51:22.432Z,78.44
2022-12-31T07:53:49.976Z,78.42
2022-12-31T07:56:16.911Z,78.28
2022-12-31T07:58:51.011Z,78.12
2022-12-31T08:01:28.914Z,78.22
2022-12-31T08:04:03.380Z,78.10
2022-12-31T08:06:46.678Z,78.00
2022-12-31T08:09:32.768Z,77.77
2022-12-31T08:12:03.392Z,77.88
2022-12-31T08:14:37.740Z,77.64
2022-12-31T08:17:06.222Z,77.56
2022-12-31T08:19:35.966Z,77.59
2022-12-31T08:22:07.409Z,77.53
2022-12-31T08:24:55.628Z,77.58
2022-12-31T08:27:30.845Z,77.54
2022-12-31T08:30:07.921Z,77.37
2022-12-31T08:32:36.674Z,77.36
2022-12-31T08:35:15.297Z,77.47
2022-12-31T08:37:47.829Z,77.67
2022-12-31T08:40:28.769Z,77.77
2022-12-31T08:43:30.947Z,77.84
2022-12-31T08:46:00.176Z,77.61
2022-12-31T08:48:27.881Z,77.37
2022-12-31T08:50:56.618Z,77.23
2022-12-31T08:53:24.806Z,76.79
2022-12-31T08:55:55.898Z,76.63
2022-12-31T08:58:32.739Z,76.30
2022-12-31T09:01:02.113Z,76.20
2022-12-31T09:03:53.939Z,76.02
2022-12-31T09:06:27.086Z,75.60
2022-12-31T09:09:15.046Z,75.54
2022-12-31T09:11:54.109Z,75.14
2022-12-31T09:14:24.644Z,74.76
2022-12-31T09:16:53.134Z,74.56
2022-12-31T09:19:20.756Z,74.43
2022-12-31T09:21:48.428Z,74.12
2022-12-31T09:24:18.405Z,73.98
2022-12-31T09:27:00.072Z,73.75
2022-12-31T09:29:29.844Z,73.80
2022-12-31T09:32:19.733Z,73.81
2022-12-31T09:34:46.673Z,73.76
2022-12-31T09:37:36.679Z,73.14
2022-12-31T09:40:22.029Z,72.71
2022-12-31T09:43:08.574Z,72.35
2022-12-31T09:45:54.224Z,72.22
2022-12-31T09:48:43.486Z,71.75
2022-12-31T09:51:30.327Z,71.41
2022-12-31T09:54:19.027Z,71.57
2022-12-31T09:57:12.883Z,70.93
2022-12-31T09:59:58.928Z,70.79
2022-12-31T10:02:45.341Z,70.62
2022-12-31T10:05:25.757Z,70.68
2022-12-31T10:08:02.341Z,70.52
2022-12-31T10:10:40.658Z,70.30
2022-12-31T10:13:22.299Z,70.44
2022-12-31T10:16:09.884Z,70.22
2022-12-31T10:18:37.342Z,70.32
2022-12-31T10:21:24.037Z,70.25
2022-12-31T10:23:57.699Z,70.20
2022-12-31T10:26:35.445Z,69.98
2022-12-31T10:29:23.518Z,70.10
2022-12-31T10:32:07.809Z,69.69
2022-12-31T10:34:37.393Z,69.86
2022-12-31T10:37:14.818Z,69.78
2022-12-31T10:40:00.885Z,69.58
2022-12-31T10:42:30.736Z,69.40
2022-12-31T10:45:20.687Z,69.52
2022-12-31T10:48:05.705Z,69.12
2022-12-31T10:50:48.424Z,68.94
2022-12-31T10:53:36.608Z,69.01
2022-12-31T10:56:29.975Z,68.61
2022-12-31T10:58:57.637Z,68.30
2022-12-31T11:01:29.806Z,68.20
2022-12-31T11:04:16.899Z,67.72
2022-12-31T11:07:08.335Z,67.44
2022-12-31T11:12:41.806Z,67.20
2022-12-31T11:15:33.885Z,67.31
2022-12-31T11:18:12.984Z,67.38
2022-12-31T11:20:45.596Z,67.37
2022-12-31T11:23:24.473Z,67.00
2022-12-31T11:26:06.021Z,67.17
2022-12-31T11:28:52.007Z,67.16
2022-12-31T11:31:32.437Z,67.36
2022-12-31T11:34:10.091Z,67.39
2022-12-31T11:36:47.183Z,67.44
2022-12-31T11:39:36.309Z,67.49
2022-12-31T11:42:18.563Z,67.41
2022-12-31T11:44:52.891Z,67.19
2022-12-31T11:47:29.582Z,67.09
2022-12-31T11:50:15.337Z,66.86
2022-12-31T11:52:54.037Z,66.91
2022-12-31T11:55:43.172Z,66.41
2022-12-31T11:58:15.999Z,66.28
2022-12-31T12:00:47.428Z,65.94
2022-12-31T12:03:15.904Z,65.86
2022-12-31T12:05:44.397Z,65.50
2022-12-31T12:08:13.667Z,65.17
2022-12-31T12:10:46.433Z,65.14
2022-12-31T12:13:19.671Z,64.68
2022-12-31T12:15:49.808Z,64.23
2022-12-31T12:18:25.551Z,63.79
2022-12-31T12:20:55.163Z,63.44
2022-12-31T12:23:25.574Z,63.19
2022-12-31T12:25:52.827Z,62.80
2022-12-31T12:28:24.190Z,62.78
2022-12-31T12:30:57.929Z,62.76
2022-12-31T12:33:29.280Z,63.08
2022-12-31T12:36:10.217Z,62.78
2022-12-31T12:38:38.800Z,62.20
2022-12-31T12:41:08.740Z,61.76
2022-12-31T12:43:39.464Z,61.45
2022-12-31T12:46:18.850Z,61.33
2022-12-31T12:48:48.873Z,61.77
2022-12-31T12:51:26.694Z,61.69
2022-12-31T12:54:16.068Z,61.74
2022-12-31T12:56:52.042Z,61.70
2022-12-31T12:59:44.140Z,62.08
2022-12-31T13:02:39.860Z,62.50
2022-12-31T13:05:27.816Z,62.88
2022-12-31T13:08:13.045Z,63.18
2022-12-31T13:10:51.200Z,63.44
2022-12-31T13:13:26.680Z,63.72
2022-12-31T13:16:07.916Z,64.00
2022-12-31T13:18:40.969Z,64.14
2022-12-31T13:21:22.202Z,64.34
2022-12-31T13:23:59.976Z,64.59
2022-12-31T13:26:33.459Z,64.80
2022-12-31T13:29:03.999Z,64.97
2022-12-31T13:31:37.779Z,65.21
2022-12-31T13:34:07.150Z,65.45
2022-12-31T13:36:39.537Z,65.51
2022-12-31T13:39:17.657Z,65.77
2022-12-31T13:41:53.972Z,65.89
2022-12-31T13:44:42.262Z,65.99
2022-12-31T13:47:13.090Z,66.10
2022-12-31T13:49:49.972Z,66.11
2022-12-31T13:52:27.740Z,66.19
2022-12-31T13:55:19.296Z,66.31
2022-12-31T13:58:09.373Z,66.40
2022-12-31T14:00:42.525Z,66.58
2022-12-31T14:03:13.134Z,66.72
2022-12-31T14:05:44.028Z,66.84
2022-12-31T14:08:13.364Z,66.91
2022-12-31T14:11:03.281Z,66.97
2022-12-31T14:13:51.114Z,67.06
2022-12-31T14:16:31.292Z,67.19
2022-12-31T14:19:31.121Z,67.29
2022-12-31T14:22:09.742Z,67.46
2022-12-31T14:24:44.035Z,67.59
2022-12-31T14:27:20.831Z,67.75
2022-12-31T14:29:52.991Z,67.89
2022-12-31T14:32:34.169Z,67.95
2022-12-31T14:35:14.769Z,68.15
2022-12-31T14:37:52.220Z,68.25
2022-12-31T14:40:29.952Z,68.42
2022-12-31T14:43:27.168Z,68.61
2022-12-31T14:46:06.115Z,68.76
2022-12-31T14:48:51.300Z,68.95
2022-12-31T14:51:20.722Z,69.11
2022-12-31T14:53:53.048Z,69.28
2022-12-31T14:56:32.807Z,69.26
2022-12-31T14:59:01.291Z,69.41
2022-12-31T15:01:31.224Z,69.46
2022-12-31T15:03:58.872Z,69.74
2022-12-31T15:06:33.556Z,69.78
2022-12-31T15:09:09.649Z,69.93
2022-12-31T15:11:49.839Z,70.06
2022-12-31T15:14:37.462Z,70.21
2022-12-31T15:17:08.988Z,70.25
2022-12-31T15:19:52.270Z,70.31
2022-12-31T15:22:22.060Z,70.44
2022-12-31T15:24:49.743Z,70.61
2022-12-31T15:27:50.629Z,70.65
2022-12-31T15:30:37.065Z,70.61
2022-12-31T15:33:17.192Z,70.63
2022-12-31T15:35:51.676Z,70.57
2022-12-31T15:38:29.032Z,70.81
2022-12-31T15:40:58.690Z,70.66
2022-12-31T15:43:46.106Z,70.68
2022-12-31T15:46:18.747Z,70.54
2022-12-31T15:48:55.460Z,70.47
2022-12-31T15:51:42.757Z,70.34
2022-12-31T15:54:24.634Z,70.27
2022-12-31T15:56:53.254Z,70.12
2022-12-31T15:59:24.685Z,69.98
2022-12-31T16:01:54.940Z,69.94
2022-12-31T16:04:23.629Z,69.91
2022-12-31T16:06:51.882Z,69.84
2022-12-31T16:09:22.296Z,69.85
2022-12-31T16:11:52.684Z,69.89
2022-12-31T16:14:24.606Z,69.98
2022-12-31T16:16:54.971Z,69.90
2022-12-31T16:19:31.427Z,69.85
2022-12-31T16:22:01.294Z,69.95
2022-12-31T16:24:35.235Z,69.94
2022-12-31T16:27:07.823Z,69.97
2022-12-31T16:29:41.614Z,69.99
2022-12-31T16:32:16.304Z,69.98
2022-12-31T16:34:45.087Z,70.02
2022-12-31T16:37:18.066Z,70.02
2022-12-31T16:39:50.687Z,69.96
2022-12-31T16:42:21.679Z,70.01
2022-12-31T16:44:50.998Z,69.96
2022-12-31T16:47:23.898Z,69.92
2022-12-31T16:49:57.896Z,69.90
2022-12-31T16:52:27.931Z,69.96
2022-12-31T16:55:00.360Z,69.91
2022-12-31T16:57:33.012Z,69.82
2022-12-31T17:00:06.078Z,69.88
2022-12-31T17:02:38.645Z,69.93
2022-12-31T17:05:20.939Z,69.93
2022-12-31T17:07:50.164Z,69.96
2022-12-31T17:10:21.213Z,70.00
2022-12-31T17:15:44.980Z,70.12
2022-12-31T17:18:22.225Z,70.09
2022-12-31T17:20:51.722Z,70.05
2022-12-31T17:23:33.255Z,70.12
2022-12-31T17:26:03.266Z,70.15
2022-12-31T17:28:39.877Z,70.19
2022-12-31T17:31:26.496Z,70.12
2022-12-31T17:34:06.016Z,70.00
2022-12-31T17:36:35.676Z,69.97
2022-12-31T17:39:19.016Z,69.92
2022-12-31T17:41:46.578Z,69.94
2022-12-31T17:44:18.996Z,69.97
2022-12-31T17:46:46.108Z,69.80
2022-12-31T17:49:14.708Z,69.81
2022-12-31T17:51:47.494Z,69.79
2022-12-31T17:54:15.874Z,69.88
2022-12-31T17:56:43.875Z,69.92
2022-12-31T17:59:21.665Z,69.91
2022-12-31T18:01:48.744Z,69.96
2022-12-31T18:04:17.556Z,70.07
2022-12-31T18:06:45.314Z,70.08
2022-12-31T18:09:19.545Z,70.07
2022-12-31T18:11:47.694Z,70.10
2022-12-31T18:14:15.574Z,70.02
2022-12-31T18:16:42.887Z,70.03
2022-12-31T18:19:37.898Z,70.02
2022-12-31T18:22:02.687Z,69.88
2022-12-31T18:24:31.414Z,70.02
2022-12-31T18:27:01.950Z,69.92
2022-12-31T18:29:30.155Z,69.80
2022-12-31T18:31:58.575Z,69.78
2022-12-31T18:34:26.970Z,69.71
2022-12-31T18:36:55.037Z,69.66
2022-12-31T18:39:24.268Z,69.55
2022-12-31T18:41:53.787Z,69.41
2022-12-31T18:44:22.374Z,69.48
2022-12-31T18:46:50.085Z,69.36
2022-12-31T18:49:17.654Z,69.40
2022-12-31T18:51:48.150Z,69.31
2022-12-31T18:54:21.759Z,69.25
2022-12-31T18:56:53.955Z,69.43
2022-12-31T18:59:26.332Z,69.24
2022-12-31T19:01:54.206Z,69.10
2022-12-31T19:04:26.944Z,69.14
2022-12-31T19:06:55.975Z,69.03
2022-12-31T19:09:44.492Z,68.90
2022-12-31T19:12:12.657Z,68.89
2022-12-31T19:14:42.992Z,68.99
2022-12-31T19:17:11.154Z,68.79
2022-12-31T19:19:41.614Z,68.91
2022-12-31T19:22:14.597Z,68.78
2022-12-31T19:24:42.966Z,68.65
2022-12-31T19:27:13.031Z,68.66
2022-12-31T19:29:40.738Z,68.55
2022-12-31T19:32:09.023Z,68.38
2022-12-31T19:34:40.649Z,68.22
2022-12-31T19:37:13.843Z,68.06
2022-12-31T19:39:41.867Z,68.07
2022-12-31T19:42:15.902Z,67.92
2022-12-31T19:44:42.758Z,67.91
2022-12-31T19:47:13.585Z,67.78
2022-12-31T19:49:41.246Z,67.65
2022-12-31T19:52:10.676Z,67.65
2022-12-31T19:54:42.665Z,67.44
2022-12-31T19:57:10.174Z,67.49
2022-12-31T19:59:42.310Z,67.44
2022-12-31T20:02:10.634Z,67.32
2022-12-31T20:04:38.504Z,67.16
2022-12-31T20:07:06.890Z,66.98
2022-12-31T20:09:36.231Z,66.94
2022-12-31T20:12:04.146Z,66.85
2022-12-31T20:14:33.968Z,66.87
2022-12-31T20:17:02.711Z,66.76
2022-12-31T20:19:30.601Z,66.66
2022-12-31T20:22:01.355Z,66.48
2022-12-31T20:24:28.035Z,66.64
2022-12-31T20:26:56.508Z,66.66
2022-12-31T20:29:25.060Z,66.70
2022-12-31T20:31:55.918Z,66.66
2022-12-31T20:34:23.616Z,66.60
2022-12-31T20:36:54.604Z,66.69
2022-12-31T20:39:22.356Z,66.69
2022-12-31T20:41:50.497Z,66.80
2022-12-31T20:44:19.671Z,66.73
2022-12-31T20:46:49.129Z,66.73
2022-12-31T20:49:37.554Z,66.81
2022-12-31T20:52:10.865Z,66.70
2022-12-31T20:54:38.729Z,66.93
2022-12-31T20:57:08.719Z,66.79
2022-12-31T20:59:38.050Z,66.84
2022-12-31T21:02:39.170Z,66.71
2022-12-31T21:04:57.951Z,66.67
2022-12-31T21:07:28.713Z,66.73
2022-12-31T21:09:55.723Z,66.68
2022-12-31T21:12:43.063Z,66.68
2022-12-31T21:15:13.324Z,66.56
2022-12-31T21:17:42.443Z,66.52
2022-12-31T21:20:12.616Z,66.56
2022-12-31T21:22:40.384Z,66.57
2022-12-31T21:25:07.060Z,66.45
2022-12-31T21:27:35.932Z,66.33
2022-12-31T21:30:19.720Z,66.32
2022-12-31T21:32:50.004Z,66.32
2022-12-31T21:38:06.904Z,66.09
2022-12-31T21:40:34.157Z,65.99
2022-12-31T21:43:02.650Z,66.06
2022-12-31T21:45:30.958Z,65.85
2022-12-31T21:48:17.409Z,65.89
2022-12-31T21:50:48.001Z,65.98
2022-12-31T21:53:24.124Z,65.88
2022-12-31T21:56:08.967Z,65.81
2022-12-31T21:58:40.980Z,65.70
2022-12-31T22:01:29.077Z,65.78
2022-12-31T22:03:56.030Z,65.82
2022-12-31T22:06:23.437Z,65.70
2022-12-31T22:08:53.419Z,65.59
2022-12-31T22:11:23.680Z,65.59
2022-12-31T22:13:55.103Z,65.55
2022-12-31T22:16:25.013Z,65.59
2022-12-31T22:18:54.630Z,65.57
2022-12-31T22:21:24.287Z,65.58
2022-12-31T22:23:52.035Z,65.67
2022-12-31T22:26:31.228Z,65.63
2022-12-31T22:28:58.954Z,65.69
2022-12-31T22:31:29.484Z,65.68
2022-12-31T22:33:57.455Z,65.72
2022-12-31T22:36:24.967Z,65.55
2022-12-31T22:38:56.734Z,65.83
2022-12-31T22:41:24.714Z,65.76
2022-12-31T22:44:03.233Z,65.82
2022-12-31T22:46:33.909Z,65.71
2022-12-31T22:49:03.773Z,65.74
2022-12-31T22:51:55.663Z,65.63
2022-12-31T22:54:21.986Z,65.43
2022-12-31T22:56:49.725Z,65.49
2022-12-31T22:59:16.618Z,65.28
2022-12-31T23:01:48.778Z,64.98
2022-12-31T23:04:21.049Z,64.91
2022-12-31T23:06:49.233Z,64.86
2022-12-31T23:09:35.317Z,64.56
2022-12-31T23:12:05.681Z,64.38
2022-12-31T23:14:56.378Z,64.18
2022-12-31T23:17:44.561Z,64.14
2022-12-31T23:20:34.770Z,64.07
2022-12-31T23:23:10.617Z,64.09
2022-12-31T23:25:40.863Z,64.00
2022-12-31T23:28:08.963Z,63.87
2022-12-31T23:30:41.835Z,63.67
2022-12-31T23:33:13.358Z,63.72
2022-12-31T23:35:41.921Z,63.53
2022-12-31T23:38:10.410Z,63.38
2022-12-31T23:40:39.375Z,63.41
2022-12-31T23:43:10.092Z,63.29
2022-12-31T23:45:38.971Z,63.25
2022-12-31T23:48:06.975Z,63.21
2022-12-31T23:50:35.747Z,63.14
2022-12-31T23:53:02.695Z,62.80
2022-12-31T23:55:29.744Z,62.86
2022-12-31T23:57:56.901Z,62.82
